createdAt,value
2023-02-03T05:55:22.758Z,99364.10
2023-02-03T05:57:51.770Z,99362.86
2023-02-03T06:00:21.047Z,99365.30
2023-02-03T06:03:01.936Z,99365.56
2023-02-03T06:06:02.979Z,99363.19
2023-02-03T06:30:11.206Z,99338.10
2023-02-03T06:32:38.662Z,99309.58
2023-02-03T06:35:17.910Z,99313.56
2023-02-03T06:37:44.749Z,99317.41
2023-02-03T06:40:12.441Z,99318.98
2023-02-03T06:42:46.638Z,99315.39
2023-02-03T06:45:14.487Z,99312.62
2023-02-03T06:47:42.916Z,99307.94
2023-02-03T06:50:14.090Z,99305.58
2023-02-03T06:52:46.186Z,99302.37
2023-02-03T06:55:13.055Z,99293.91
2023-02-03T06:57:51.931Z,99290.05
2023-02-03T07:00:23.977Z,99281.11
2023-02-03T07:06:07.093Z,99267.86
2023-02-03T07:08:44.123Z,99271.46
2023-02-03T07:11:11.582Z,99267.14
2023-02-03T07:13:38.474Z,99260.75
2023-02-03T07:16:06.261Z,99257.79
2023-02-03T07:18:46.833Z,99256.45
2023-02-03T07:21:17.086Z,99249.25
2023-02-03T07:23:47.737Z,99242.55
2023-02-03T07:26:45.967Z,99237.20
2023-02-03T07:29:19.423Z,99230.52
2023-02-03T07:31:46.952Z,99229.52
2023-02-03T07:34:16.564Z,99223.98
2023-02-03T07:36:43.793Z,99221.60
2023-02-03T07:39:10.981Z,99223.61
2023-02-03T07:41:37.921Z,99217.67
2023-02-03T07:44:05.121Z,99206.56
2023-02-03T07:46:32.255Z,99202.38
2023-02-03T07:49:18.170Z,99200.59
2023-02-03T07:55:12.419Z,99186.51
2023-02-03T07:57:42.688Z,99185.61
2023-02-03T08:00:12.023Z,99172.95
2023-02-03T08:02:53.449Z,99161.46
2023-02-03T08:05:54.040Z,99153.35
2023-02-03T08:10:20.228Z,99144.99
2023-02-03T08:28:20.937Z,99108.63
2023-02-03T08:30:49.398Z,99111.71
2023-02-03T08:33:16.957Z,99106.94
2023-02-03T08:35:56.398Z,99106.53
2023-02-03T08:38:23.657Z,99097.94
2023-02-03T08:40:55.030Z,99092.41
2023-02-03T08:43:22.892Z,99088.90
2023-02-03T08:46:02.950Z,99086.97
2023-02-03T08:48:38.783Z,99078.81
2023-02-03T08:51:14.075Z,99073.54
2023-02-03T08:53:43.146Z,99072.05
2023-02-03T08:56:25.923Z,99063.92
2023-02-03T08:58:55.976Z,99063.91
2023-02-03T09:01:23.461Z,99061.23
2023-02-03T09:03:51.497Z,99056.52
2023-02-03T09:06:24.115Z,99055.52
2023-02-03T09:09:04.345Z,99059.33
2023-02-03T09:11:35.644Z,99063.55
2023-02-03T09:14:02.827Z,99069.90
2023-02-03T09:16:36.127Z,99064.83
2023-02-03T09:19:03.597Z,99060.95
2023-02-03T09:21:33.364Z,99056.63
2023-02-03T09:24:03.456Z,99051.51
2023-02-03T09:26:30.815Z,99038.96
2023-02-03T09:28:57.645Z,99035.93
2023-02-03T09:31:24.339Z,99038.00
2023-02-03T09:33:51.676Z,99032.40
2023-02-03T09:36:18.801Z,99026.58
2023-02-03T09:38:45.751Z,99024.85
2023-02-03T09:41:34.277Z,99022.29
2023-02-03T09:44:29.853Z,99013.23
2023-02-03T09:55:38.231Z,98973.45
2023-02-03T09:58:06.227Z,98969.05
2023-02-03T10:00:42.218Z,98967.09
2023-02-03T10:03:18.730Z,98962.09
2023-02-03T10:06:16.354Z,98950.91
2023-02-03T10:09:23.881Z,98947.82
2023-02-03T10:12:19.351Z,98942.59
2023-02-03T10:14:55.098Z,98932.61
2023-02-03T10:17:32.346Z,98925.02
2023-02-03T10:20:11.376Z,98910.52
2023-02-03T10:22:50.632Z,98895.73
2023-02-03T10:25:33.417Z,98886.36
2023-02-03T10:28:29.073Z,98873.23
2023-02-03T10:31:13.916Z,98853.00
2023-02-03T10:34:19.301Z,98833.32
2023-02-03T10:37:05.200Z,98820.09
2023-02-03T10:40:01.844Z,98804.48
2023-02-03T10:43:07.717Z,98779.01
2023-02-03T10:45:37.978Z,98759.05
2023-02-03T10:48:15.967Z,98742.83
2023-02-03T10:50:49.747Z,98719.61
2023-02-03T10:53:35.223Z,98695.32
2023-02-03T10:56:12.887Z,98674.02
2023-02-03T10:58:49.203Z,98653.39
2023-02-03T11:01:20.909Z,98632.37
2023-02-03T11:03:59.924Z,98611.97
2023-02-03T11:06:27.393Z,98589.50
2023-02-03T11:08:54.614Z,98561.14
2023-02-03T11:11:27.656Z,98546.29
2023-02-03T11:14:10.239Z,98528.19
2023-02-03T11:16:56.180Z,98509.27
2023-02-03T11:19:23.251Z,98486.24
2023-02-03T11:21:53.730Z,98471.02
2023-02-03T11:24:24.558Z,98454.63
2023-02-03T11:26:59.524Z,98424.35
2023-02-03T11:29:34.045Z,98404.77
2023-02-03T11:32:19.138Z,98387.00
2023-02-03T11:34:51.555Z,98373.50
2023-02-03T11:37:38.670Z,98360.31
2023-02-03T11:40:08.462Z,98345.66
2023-02-03T11:42:44.873Z,98329.77
2023-02-03T11:45:25.788Z,98310.19
2023-02-03T11:48:07.380Z,98294.17
2023-02-03T11:50:41.365Z,98283.38
2023-02-03T11:53:14.026Z,98271.48
2023-02-03T11:55:59.660Z,98257.09
2023-02-03T11:58:35.543Z,98241.10
2023-02-03T12:29:51.813Z,98080.91
2023-02-03T12:32:59.821Z,98054.10
2023-02-03T12:43:48.791Z,98009.46
2023-02-03T12:46:55.740Z,97993.67
2023-02-03T12:50:01.782Z,97977.15
2023-02-03T12:53:13.767Z,97953.64
2023-02-03T12:56:10.250Z,97940.77
2023-02-03T12:58:49.184Z,97928.67
2023-02-03T13:01:49.212Z,97908.40
2023-02-03T13:04:38.077Z,97885.06
2023-02-03T13:07:31.752Z,97867.09
2023-02-03T13:37:57.559Z,97636.67
2023-02-03T13:40:42.732Z,97594.53
2023-02-03T13:43:17.378Z,97579.41
2023-02-03T13:45:51.635Z,97572.92
2023-02-03T13:48:28.314Z,97559.62
2023-02-03T13:51:34.128Z,97547.88
2023-02-03T13:54:07.246Z,97532.71
2023-02-03T13:56:34.207Z,97525.97
2023-02-03T13:59:27.983Z,97515.61
2023-02-03T14:02:26.572Z,97503.51
2023-02-03T14:04:55.703Z,97492.39
2023-02-03T14:07:28.402Z,97484.05
2023-02-03T14:10:07.476Z,97466.00
2023-02-03T14:12:51.208Z,97457.10
2023-02-03T14:15:20.437Z,97447.42
2023-02-03T14:17:47.189Z,97429.96
2023-02-03T14:20:26.260Z,97417.45
2023-02-03T14:23:15.270Z,97404.09
2023-02-03T14:25:50.166Z,97390.27
2023-02-03T14:28:24.731Z,97373.98
2023-02-03T14:31:02.637Z,97370.55
2023-02-03T14:33:45.615Z,97361.14
2023-02-03T14:36:37.301Z,97353.73
2023-02-03T14:39:37.632Z,97350.96
2023-02-03T14:42:22.475Z,97337.71
2023-02-03T14:45:34.191Z,97335.88
2023-02-03T14:48:28.843Z,97322.17
2023-02-03T14:51:01.760Z,97310.94
2023-02-03T14:53:56.514Z,97319.56
2023-02-03T14:57:15.287Z,97319.23
2023-02-03T14:59:57.454Z,97319.71
2023-02-03T15:02:27.233Z,97317.95
2023-02-03T15:05:13.120Z,97305.13
2023-02-03T15:07:45.804Z,97298.50
2023-02-03T15:10:26.354Z,97316.30
2023-02-03T15:12:55.544Z,97325.94
2023-02-03T15:15:37.963Z,97323.08
2023-02-03T15:18:39.160Z,97307.20
2023-02-03T15:21:13.990Z,97305.06
2023-02-03T15:23:47.167Z,97305.47
2023-02-03T15:26:20.390Z,97313.98
2023-02-03T15:28:58.485Z,97308.52
2023-02-03T15:31:44.193Z,97305.68
2023-02-03T15:34:34.719Z,97290.18
2023-02-03T16:15:49.702Z,97268.70
2023-02-03T16:18:17.493Z,97258.81
2023-02-03T16:20:50.312Z,97254.77
2023-02-03T16:23:22.985Z,97254.05
2023-02-03T16:26:06.839Z,97239.38
2023-02-03T16:28:52.860Z,97225.88
2023-02-03T16:31:39.980Z,97211.79
2023-02-03T16:34:34.953Z,97205.69
2023-02-03T16:37:49.016Z,97193.80
2023-02-03T16:40:38.797Z,97183.23
2023-02-03T16:43:31.635Z,97136.10
2023-02-03T16:46:18.772Z,97094.44
2023-02-03T16:49:24.617Z,97064.01
2023-02-03T16:51:51.819Z,96859.27
2023-02-03T16:54:19.105Z,96811.52
2023-02-03T16:56:51.483Z,96805.77
2023-02-03T16:59:20.272Z,96797.33
2023-02-03T17:01:48.183Z,96800.81
2023-02-03T17:04:16.645Z,96807.16
2023-02-03T17:06:45.371Z,96812.56
2023-02-03T17:09:12.635Z,96824.53
2023-02-03T17:11:39.499Z,96836.19
2023-02-03T17:14:06.258Z,96844.34
2023-02-03T17:16:32.921Z,96846.02
2023-02-03T17:18:59.979Z,96858.67
2023-02-03T17:21:29.107Z,96863.35
2023-02-03T17:23:59.714Z,96874.48
2023-02-03T17:26:26.644Z,96878.70
2023-02-03T17:28:57.973Z,96887.38
2023-02-03T17:31:25.202Z,96893.56
2023-02-03T17:33:52.211Z,96902.36
2023-02-03T17:36:21.176Z,96910.89
2023-02-03T18:09:43.204Z,96982.65
2023-02-03T18:15:57.583Z,96991.18
2023-02-03T18:24:44.279Z,97005.31
2023-02-03T18:27:17.377Z,97008.33
2023-02-03T18:29:46.403Z,97017.56
2023-02-03T18:32:14.976Z,97023.59
2023-02-03T18:34:42.525Z,97026.23
2023-02-03T18:37:11.136Z,97025.52
2023-02-03T18:39:38.429Z,97029.86
2023-02-03T18:42:11.796Z,97028.46
2023-02-03T18:44:43.898Z,97025.98
2023-02-03T18:47:12.536Z,97030.04
2023-02-03T18:49:40.264Z,97026.97
2023-02-03T18:52:07.325Z,97033.34
2023-02-03T18:54:34.194Z,97038.91
2023-02-03T18:57:02.642Z,97039.14
2023-02-03T18:59:31.337Z,97039.07
2023-02-03T19:01:58.797Z,97042.44
2023-02-03T19:04:26.272Z,97047.98
2023-02-03T19:06:54.215Z,97051.21
2023-02-03T19:19:14.107Z,97056.39
2023-02-03T19:21:44.400Z,97053.55
2023-02-03T19:24:21.081Z,97055.88
2023-02-03T19:26:56.088Z,97055.52
2023-02-03T20:56:21.533Z,97120.90
2023-02-03T20:58:49.397Z,97122.10
2023-02-03T21:01:25.288Z,97121.98
2023-02-03T21:39:13.748Z,97141.80
2023-02-03T21:41:53.320Z,97143.73
2023-02-03T21:45:10.102Z,97143.60
2023-02-03T21:48:40.300Z,97151.04
2023-02-03T21:51:20.548Z,97154.48
2023-02-03T21:53:54.964Z,97154.71
2023-02-03T21:56:29.746Z,97157.98
2023-02-03T21:58:59.330Z,97163.17
2023-02-03T22:01:34.189Z,97163.48
2023-02-03T22:04:03.240Z,97163.16
2023-02-03T22:06:48.581Z,97164.77
2023-02-03T22:09:23.015Z,97167.45
2023-02-03T22:11:50.396Z,97165.13
2023-02-03T22:14:20.428Z,97165.52
2023-02-03T22:16:51.817Z,97161.65
2023-02-03T22:19:18.906Z,97164.61
2023-02-03T22:21:47.889Z,97163.71
2023-02-03T22:24:15.045Z,97166.30
2023-02-03T22:26:42.361Z,97169.10
2023-02-03T22:29:09.391Z,97173.41
2023-02-03T22:31:36.452Z,97175.08
2023-02-03T22:34:03.793Z,97179.90
2023-02-03T22:36:30.982Z,97182.30
2023-02-03T22:38:58.181Z,97183.58
2023-02-03T22:41:25.544Z,97186.27
2023-02-03T22:43:52.557Z,97194.90
2023-02-03T22:46:19.651Z,97195.27
2023-02-03T22:48:47.001Z,97197.67
2023-02-03T22:51:14.127Z,97200.02
2023-02-03T22:53:44.244Z,97202.26
2023-02-03T22:56:12.335Z,97202.89
2023-02-03T22:58:59.430Z,97202.04
2023-02-03T23:01:26.349Z,97201.62
2023-02-03T23:10:24.879Z,97205.47
2023-02-03T23:12:51.765Z,97208.20
2023-02-03T23:15:18.668Z,97213.86
2023-02-03T23:17:45.776Z,97218.48
2023-02-03T23:20:14.828Z,97221.89
2023-02-03T23:25:53.013Z,97233.46
2023-02-03T23:28:20.652Z,97241.56
2023-02-03T23:30:47.971Z,97250.08
2023-02-03T23:33:14.989Z,97257.00
2023-02-03T23:35:44.614Z,97260.13
2023-02-03T23:38:12.274Z,97268.18
2023-02-03T23:40:39.306Z,97275.71
2023-02-03T23:43:06.193Z,97283.86
2023-02-03T23:46:07.162Z,97292.45
2023-02-03T23:48:54.441Z,97309.60
2023-02-03T23:51:35.464Z,97319.69
2023-02-03T23:54:44.825Z,97326.46
2023-02-03T23:57:13.090Z,97352.13
2023-02-03T23:59:40.318Z,97368.70
